sensor_id;sensor_type;location;lat;lon;timestamp;pressure;altitude;pressure_sealevel;temperature;humidity
9822;BME280;4950;46.042;14.472;2024-03-23T00:51:40;97723.03;;;13.14;60.42
9822;BME280;4950;46.042;14.472;2024-03-23T00:54:07;97719.63;;;13.07;60.75
9822;BME280;4950;46.042;14.472;2024-03-23T00:56:33;97713.38;;;13.01;60.92
9822;BME280;4950;46.042;14.472;2024-03-23T00:58:59;97706.56;;;13.00;61.03
9822;BME280;4950;46.042;14.472;2024-03-23T01:01:25;97708.72;;;12.96;60.92
9822;BME280;4950;46.042;14.472;2024-03-23T01:03:52;97700.72;;;12.98;61.19
9822;BME280;4950;46.042;14.472;2024-03-23T01:06:17;97697.75;;;13.01;61.11
9822;BME280;4950;46.042;14.472;2024-03-23T01:08:45;97694.75;;;13.04;60.92
9822;BME280;4950;46.042;14.472;2024-03-23T01:11:11;97695.75;;;13.10;60.92
9822;BME280;4950;46.042;14.472;2024-03-23T01:13:38;97692.13;;;13.04;60.43
9822;BME280;4950;46.042;14.472;2024-03-23T01:16:04;97693.16;;;13.03;60.79
9822;BME280;4950;46.042;14.472;2024-03-23T01:18:30;97696.53;;;13.03;60.85
9822;BME280;4950;46.042;14.472;2024-03-23T01:20:56;97687.94;;;13.10;60.76
9822;BME280;4950;46.042;14.472;2024-03-23T01:23:23;97682.72;;;13.10;60.52
9822;BME280;4950;46.042;14.472;2024-03-23T01:25:53;97681.13;;;13.09;60.31
9822;BME280;4950;46.042;14.472;2024-03-23T01:28:20;97678.13;;;13.12;60.41
9822;BME280;4950;46.042;14.472;2024-03-23T01:30:46;97673.94;;;13.11;60.43
9822;BME280;4950;46.042;14.472;2024-03-23T01:33:13;97669.31;;;13.13;60.49
9822;BME280;4950;46.042;14.472;2024-03-23T01:35:39;97673.94;;;13.17;60.74
9822;BME280;4950;46.042;14.472;2024-03-23T01:38:06;97669.75;;;13.23;60.23
9822;BME280;4950;46.042;14.472;2024-03-23T01:40:31;97672.34;;;13.23;60.22
9822;BME280;4950;46.042;14.472;2024-03-23T01:43:04;97665.16;;;13.25;60.31
9822;BME280;4950;46.042;14.472;2024-03-23T01:45:31;97666.53;;;13.21;60.56
9822;BME280;4950;46.042;14.472;2024-03-23T01:47:58;97666.16;;;13.24;60.52
9822;BME280;4950;46.042;14.472;2024-03-23T01:50:24;97655.72;;;13.24;60.40
9822;BME280;4950;46.042;14.472;2024-03-23T01:52:51;97654.91;;;13.23;60.70
9822;BME280;4950;46.042;14.472;2024-03-23T01:55:17;97648.91;;;13.23;60.37
9822;BME280;4950;46.042;14.472;2024-03-23T01:57:44;97641.25;;;13.21;60.29
9822;BME280;4950;46.042;14.472;2024-03-23T02:00:12;97644.28;;;13.18;60.60
9822;BME280;4950;46.042;14.472;2024-03-23T02:02:43;97639.25;;;13.17;60.57
9822;BME280;4950;46.042;14.472;2024-03-23T02:05:10;97641.25;;;13.15;60.76
9822;BME280;4950;46.042;14.472;2024-03-23T02:07:37;97643.63;;;13.10;61.21
9822;BME280;4950;46.042;14.472;2024-03-23T02:10:03;97634.84;;;13.11;61.24
9822;BME280;4950;46.042;14.472;2024-03-23T02:12:30;97641.03;;;13.10;61.36
9822;BME280;4950;46.042;14.472;2024-03-23T02:14:56;97629.81;;;13.16;61.75
9822;BME280;4950;46.042;14.472;2024-03-23T02:17:24;97628.22;;;13.15;62.51
9822;BME280;4950;46.042;14.472;2024-03-23T02:19:50;97621.81;;;13.17;62.93
9822;BME280;4950;46.042;14.472;2024-03-23T02:22:17;97617.41;;;13.18;63.07
9822;BME280;4950;46.042;14.472;2024-03-23T02:24:44;97619.56;;;13.08;63.59
9822;BME280;4950;46.042;14.472;2024-03-23T02:27:11;97619.19;;;13.11;63.58
9822;BME280;4950;46.042;14.472;2024-03-23T02:29:37;97612.75;;;13.00;63.81
9822;BME280;4950;46.042;14.472;2024-03-23T02:32:04;97611.34;;;12.97;64.65
9822;BME280;4950;46.042;14.472;2024-03-23T02:34:30;97612.91;;;12.92;64.27
9822;BME280;4950;46.042;14.472;2024-03-23T02:36:57;97608.50;;;12.86;64.53
9822;BME280;4950;46.042;14.472;2024-03-23T02:39:23;97605.84;;;12.79;65.10
9822;BME280;4950;46.042;14.472;2024-03-23T02:41:51;97615.41;;;12.65;65.77
9822;BME280;4950;46.042;14.472;2024-03-23T02:44:16;97611.16;;;12.57;65.89
9822;BME280;4950;46.042;14.472;2024-03-23T02:46:43;97609.53;;;12.50;66.34
9822;BME280;4950;46.042;14.472;2024-03-23T02:49:09;97598.72;;;12.46;66.69
9822;BME280;4950;46.042;14.472;2024-03-23T02:51:35;97594.88;;;12.42;67.11
9822;BME280;4950;46.042;14.472;2024-03-23T02:54:01;97603.09;;;12.39;67.11
9822;BME280;4950;46.042;14.472;2024-03-23T02:56:28;97604.00;;;12.24;67.75
9822;BME280;4950;46.042;14.472;2024-03-23T02:58:55;97597.38;;;12.22;67.69
9822;BME280;4950;46.042;14.472;2024-03-23T03:01:22;97596.75;;;12.20;68.03
9822;BME280;4950;46.042;14.472;2024-03-23T03:03:47;97599.53;;;12.12;68.51
9822;BME280;4950;46.042;14.472;2024-03-23T03:06:22;97588.34;;;12.18;68.60
9822;BME280;4950;46.042;14.472;2024-03-23T03:08:48;97589.56;;;12.22;68.78
9822;BME280;4950;46.042;14.472;2024-03-23T03:11:15;97588.97;;;12.20;68.92
9822;BME280;4950;46.042;14.472;2024-03-23T03:13:41;97583.06;;;12.04;69.38
9822;BME280;4950;46.042;14.472;2024-03-23T03:16:09;97587.66;;;12.02;69.68
9822;BME280;4950;46.042;14.472;2024-03-23T03:18:35;97583.19;;;11.90;70.41
9822;BME280;4950;46.042;14.472;2024-03-23T03:21:02;97581.91;;;11.85;70.52
9822;BME280;4950;46.042;14.472;2024-03-23T03:23:28;97590.44;;;11.79;70.68
9822;BME280;4950;46.042;14.472;2024-03-23T03:25:54;97584.41;;;11.72;70.76
9822;BME280;4950;46.042;14.472;2024-03-23T03:28:20;97580.06;;;11.79;70.57
9822;BME280;4950;46.042;14.472;2024-03-23T03:30:47;97575.25;;;11.76;70.82
9822;BME280;4950;46.042;14.472;2024-03-23T03:33:14;97576.88;;;11.56;70.52
9822;BME280;4950;46.042;14.472;2024-03-23T03:35:41;97580.03;;;11.51;71.22
9822;BME280;4950;46.042;14.472;2024-03-23T03:38:06;97583.41;;;11.45;71.63
9822;BME280;4950;46.042;14.472;2024-03-23T03:40:33;97579.31;;;11.36;71.89
9822;BME280;4950;46.042;14.472;2024-03-23T03:42:59;97579.31;;;11.36;72.44
9822;BME280;4950;46.042;14.472;2024-03-23T03:45:25;97577.09;;;11.33;72.21
9822;BME280;4950;46.042;14.472;2024-03-23T03:47:51;97579.00;;;11.24;73.30
9822;BME280;4950;46.042;14.472;2024-03-23T03:50:19;97575.19;;;11.20;73.41
9822;BME280;4950;46.042;14.472;2024-03-23T03:52:45;97566.16;;;11.16;73.76
9822;BME280;4950;46.042;14.472;2024-03-23T03:55:13;97575.66;;;11.09;74.03
9822;BME280;4950;46.042;14.472;2024-03-23T03:57:39;97572.00;;;11.03;74.65
9822;BME280;4950;46.042;14.472;2024-03-23T04:00:07;97583.31;;;10.95;74.65
9822;BME280;4950;46.042;14.472;2024-03-23T04:02:36;97571.31;;;10.94;74.79
9822;BME280;4950;46.042;14.472;2024-03-23T04:05:03;97567.91;;;10.72;75.40
9822;BME280;4950;46.042;14.472;2024-03-23T04:07:30;97572.66;;;10.69;75.93
9822;BME280;4950;46.042;14.472;2024-03-23T04:09:57;97569.31;;;10.75;75.59
9822;BME280;4950;46.042;14.472;2024-03-23T04:12:23;97572.28;;;10.72;75.78
9822;BME280;4950;46.042;14.472;2024-03-23T04:14:49;97566.34;;;10.78;75.79
9822;BME280;4950;46.042;14.472;2024-03-23T04:17:15;97568.31;;;10.76;75.95
9822;BME280;4950;46.042;14.472;2024-03-23T04:19:42;97563.69;;;10.71;76.00
9822;BME280;4950;46.042;14.472;2024-03-23T04:22:09;97557.50;;;10.72;75.84
9822;BME280;4950;46.042;14.472;2024-03-23T04:24:37;97555.22;;;10.62;76.29
9822;BME280;4950;46.042;14.472;2024-03-23T04:27:03;97558.97;;;10.60;76.23
9822;BME280;4950;46.042;14.472;2024-03-23T04:29:29;97558.09;;;10.53;76.67
9822;BME280;4950;46.042;14.472;2024-03-23T04:31:55;97559.63;;;10.47;76.23
9822;BME280;4950;46.042;14.472;2024-03-23T04:34:22;97552.81;;;10.46;76.32
9822;BME280;4950;46.042;14.472;2024-03-23T04:36:48;97559.78;;;10.45;76.59
9822;BME280;4950;46.042;14.472;2024-03-23T04:39:15;97563.47;;;10.36;76.83
9822;BME280;4950;46.042;14.472;2024-03-23T04:41:44;97563.75;;;10.41;76.42
9822;BME280;4950;46.042;14.472;2024-03-23T04:44:10;97556.19;;;10.46;76.44
9822;BME280;4950;46.042;14.472;2024-03-23T04:46:36;97558.38;;;10.43;76.40
9822;BME280;4950;46.042;14.472;2024-03-23T04:49:03;97558.91;;;10.38;76.47
9822;BME280;4950;46.042;14.472;2024-03-23T04:51:35;97556.41;;;10.30;76.24
9822;BME280;4950;46.042;14.472;2024-03-23T04:54:02;97557.91;;;10.24;76.93
9822;BME280;4950;46.042;14.472;2024-03-23T04:56:29;97564.16;;;10.15;77.45
9822;BME280;4950;46.042;14.472;2024-03-23T04:58:56;97567.19;;;10.19;77.62
9822;BME280;4950;46.042;14.472;2024-03-23T05:01:26;97566.13;;;10.13;77.54
9822;BME280;4950;46.042;14.472;2024-03-23T05:03:52;97570.25;;;10.22;76.98
9822;BME280;4950;46.042;14.472;2024-03-23T05:06:19;97571.59;;;10.18;77.36
9822;BME280;4950;46.042;14.472;2024-03-23T05:08:44;97570.59;;;10.19;77.43
9822;BME280;4950;46.042;14.472;2024-03-23T05:11:11;97566.31;;;10.12;78.00
9822;BME280;4950;46.042;14.472;2024-03-23T05:13:37;97567.63;;;10.07;77.89
9822;BME280;4950;46.042;14.472;2024-03-23T05:16:05;97572.03;;;10.07;78.16
9822;BME280;4950;46.042;14.472;2024-03-23T05:18:31;97565.50;;;10.11;77.57
9822;BME280;4950;46.042;14.472;2024-03-23T05:20:58;97563.28;;;10.08;77.87
9822;BME280;4950;46.042;14.472;2024-03-23T05:23:24;97564.78;;;10.02;77.91
9822;BME280;4950;46.042;14.472;2024-03-23T05:25:51;97565.25;;;10.06;77.84
9822;BME280;4950;46.042;14.472;2024-03-23T05:28:18;97564.50;;;9.97;78.01
9822;BME280;4950;46.042;14.472;2024-03-23T05:30:50;97568.81;;;9.90;78.95
9822;BME280;4950;46.042;14.472;2024-03-23T05:33:17;97565.94;;;10.00;78.19
9822;BME280;4950;46.042;14.472;2024-03-23T05:35:44;97560.94;;;9.98;78.04
9822;BME280;4950;46.042;14.472;2024-03-23T05:38:10;97557.09;;;9.94;78.50
9822;BME280;4950;46.042;14.472;2024-03-23T05:40:37;97557.91;;;9.95;78.50
9822;BME280;4950;46.042;14.472;2024-03-23T05:43:05;97563.44;;;9.92;78.68
9822;BME280;4950;46.042;14.472;2024-03-23T05:45:32;97548.50;;;9.94;78.50
9822;BME280;4950;46.042;14.472;2024-03-23T05:47:58;97559.41;;;9.89;79.05
9822;BME280;4950;46.042;14.472;2024-03-23T05:50:26;97557.00;;;9.87;78.70
9822;BME280;4950;46.042;14.472;2024-03-23T05:52:52;97554.56;;;9.86;79.66
9822;BME280;4950;46.042;14.472;2024-03-23T05:55:18;97551.56;;;9.82;79.43
9822;BME280;4950;46.042;14.472;2024-03-23T05:57:45;97551.91;;;9.79;79.57
9822;BME280;4950;46.042;14.472;2024-03-23T06:00:12;97551.44;;;9.76;79.16
9822;BME280;4950;46.042;14.472;2024-03-23T06:02:41;97557.25;;;9.78;79.80
9822;BME280;4950;46.042;14.472;2024-03-23T06:05:10;97555.47;;;9.78;79.59
9822;BME280;4950;46.042;14.472;2024-03-23T06:07:37;97562.44;;;9.78;80.26
9822;BME280;4950;46.042;14.472;2024-03-23T06:10:04;97544.91;;;9.80;80.08
9822;BME280;4950;46.042;14.472;2024-03-23T06:12:30;97550.72;;;9.82;80.43
9822;BME280;4950;46.042;14.472;2024-03-23T06:14:57;97551.19;;;9.85;80.37
9822;BME280;4950;46.042;14.472;2024-03-23T06:17:23;97551.34;;;9.84;80.25
9822;BME280;4950;46.042;14.472;2024-03-23T06:19:50;97550.09;;;9.80;80.69
9822;BME280;4950;46.042;14.472;2024-03-23T06:22:15;97549.22;;;9.87;80.84
9822;BME280;4950;46.042;14.472;2024-03-23T06:24:44;97545.19;;;9.85;80.96
9822;BME280;4950;46.042;14.472;2024-03-23T06:27:10;97546.91;;;9.93;80.59
9822;BME280;4950;46.042;14.472;2024-03-23T06:29:36;97538.94;;;9.94;80.94
9822;BME280;4950;46.042;14.472;2024-03-23T06:32:02;97541.78;;;9.99;80.08
9822;BME280;4950;46.042;14.472;2024-03-23T06:34:29;97533.50;;;10.04;80.08
9822;BME280;4950;46.042;14.472;2024-03-23T06:36:55;97532.84;;;10.17;79.54
9822;BME280;4950;46.042;14.472;2024-03-23T06:39:22;97525.34;;;10.22;79.22
9822;BME280;4950;46.042;14.472;2024-03-23T06:41:53;97527.38;;;10.26;78.62
9822;BME280;4950;46.042;14.472;2024-03-23T06:44:20;97524.78;;;10.26;79.13
9822;BME280;4950;46.042;14.472;2024-03-23T06:46:46;97525.78;;;10.25;77.97
9822;BME280;4950;46.042;14.472;2024-03-23T06:49:14;97523.31;;;10.32;76.72
9822;BME280;4950;46.042;14.472;2024-03-23T06:51:40;97516.84;;;10.43;76.10
9822;BME280;4950;46.042;14.472;2024-03-23T06:54:07;97513.97;;;10.53;76.72
9822;BME280;4950;46.042;14.472;2024-03-23T06:56:36;97510.88;;;10.64;75.69
9822;BME280;4950;46.042;14.472;2024-03-23T06:59:04;97513.44;;;10.79;74.00
9822;BME280;4950;46.042;14.472;2024-03-23T07:01:30;97513.25;;;11.02;71.37
9822;BME280;4950;46.042;14.472;2024-03-23T07:03:56;97512.38;;;11.16;70.69
9822;BME280;4950;46.042;14.472;2024-03-23T07:06:22;97501.75;;;11.33;69.12
9822;BME280;4950;46.042;14.472;2024-03-23T07:08:49;97501.78;;;11.39;69.51
9822;BME280;4950;46.042;14.472;2024-03-23T07:11:18;97501.09;;;11.52;69.57
9822;BME280;4950;46.042;14.472;2024-03-23T07:13:45;97502.53;;;11.61;69.34
9822;BME280;4950;46.042;14.472;2024-03-23T07:16:13;97491.03;;;11.77;69.08
9822;BME280;4950;46.042;14.472;2024-03-23T07:18:39;97492.97;;;11.97;67.25
9822;BME280;4950;46.042;14.472;2024-03-23T07:21:05;97495.69;;;12.17;65.62
9822;BME280;4950;46.042;14.472;2024-03-23T07:23:32;97480.75;;;12.39;64.61
9822;BME280;4950;46.042;14.472;2024-03-23T07:26:00;97486.59;;;12.61;64.24
9822;BME280;4950;46.042;14.472;2024-03-23T07:28:26;97484.22;;;12.73;63.53
9822;BME280;4950;46.042;14.472;2024-03-23T07:31:03;97486.47;;;12.89;63.24
9822;BME280;4950;46.042;14.472;2024-03-23T07:33:31;97478.84;;;13.08;62.16
9822;BME280;4950;46.042;14.472;2024-03-23T07:35:58;97464.44;;;13.18;62.26
9822;BME280;4950;46.042;14.472;2024-03-23T07:38:26;97477.69;;;13.37;60.90
9822;BME280;4950;46.042;14.472;2024-03-23T07:41:02;97473.25;;;13.51;59.64
9822;BME280;4950;46.042;14.472;2024-03-23T07:43:29;97477.06;;;13.61;59.80
9822;BME280;4950;46.042;14.472;2024-03-23T07:45:55;97472.00;;;13.67;59.70
9822;BME280;4950;46.042;14.472;2024-03-23T07:48:22;97471.00;;;13.74;59.82
9822;BME280;4950;46.042;14.472;2024-03-23T07:51:00;97461.16;;;13.83;59.32
9822;BME280;4950;46.042;14.472;2024-03-23T07:53:27;97476.38;;;13.86;58.61
9822;BME280;4950;46.042;14.472;2024-03-23T07:55:57;97466.75;;;13.93;58.71
9822;BME280;4950;46.042;14.472;2024-03-23T07:58:24;97464.69;;;14.02;58.57
9822;BME280;4950;46.042;14.472;2024-03-23T08:00:52;97455.44;;;14.13;57.33
9822;BME280;4950;46.042;14.472;2024-03-23T08:03:19;97459.19;;;14.23;57.45
9822;BME280;4950;46.042;14.472;2024-03-23T08:05:45;97455.53;;;14.31;57.10
9822;BME280;4950;46.042;14.472;2024-03-23T08:08:13;97454.03;;;14.49;57.15
9822;BME280;4950;46.042;14.472;2024-03-23T08:10:47;97452.63;;;14.59;56.97
9822;BME280;4950;46.042;14.472;2024-03-23T08:13:14;97449.16;;;14.66;56.33
9822;BME280;4950;46.042;14.472;2024-03-23T08:15:39;97448.31;;;14.72;54.75
9822;BME280;4950;46.042;14.472;2024-03-23T08:18:06;97433.81;;;14.76;54.42
9822;BME280;4950;46.042;14.472;2024-03-23T08:20:32;97439.22;;;14.81;54.57
9822;BME280;4950;46.042;14.472;2024-03-23T08:22:59;97441.38;;;14.84;53.40
9822;BME280;4950;46.042;14.472;2024-03-23T08:25:26;97432.53;;;14.85;53.71
9822;BME280;4950;46.042;14.472;2024-03-23T08:27:53;97427.69;;;14.89;53.48
9822;BME280;4950;46.042;14.472;2024-03-23T08:30:18;97427.31;;;14.85;53.36
9822;BME280;4950;46.042;14.472;2024-03-23T08:32:45;97421.44;;;14.90;52.73
9822;BME280;4950;46.042;14.472;2024-03-23T08:35:11;97426.03;;;14.94;52.73
9822;BME280;4950;46.042;14.472;2024-03-23T08:37:38;97430.84;;;14.97;52.25
9822;BME280;4950;46.042;14.472;2024-03-23T08:40:04;97420.97;;;14.99;52.53
9822;BME280;4950;46.042;14.472;2024-03-23T08:42:33;97424.75;;;15.04;52.61
9822;BME280;4950;46.042;14.472;2024-03-23T08:44:58;97411.25;;;15.07;52.56
9822;BME280;4950;46.042;14.472;2024-03-23T08:47:25;97414.84;;;15.12;52.67
9822;BME280;4950;46.042;14.472;2024-03-23T08:49:51;97410.97;;;15.15;53.01
9822;BME280;4950;46.042;14.472;2024-03-23T08:52:18;97409.91;;;15.23;53.02
9822;BME280;4950;46.042;14.472;2024-03-23T08:54:43;97404.25;;;15.26;53.61
9822;BME280;4950;46.042;14.472;2024-03-23T08:57:11;97399.16;;;15.31;52.47
9822;BME280;4950;46.042;14.472;2024-03-23T08:59:39;97395.91;;;15.35;52.84
9822;BME280;4950;46.042;14.472;2024-03-23T09:02:05;97389.72;;;15.48;52.51
9822;BME280;4950;46.042;14.472;2024-03-23T09:04:31;97385.47;;;15.72;51.40
9822;BME280;4950;46.042;14.472;2024-03-23T09:06:58;97382.41;;;15.94;51.20
9822;BME280;4950;46.042;14.472;2024-03-23T09:09:25;97379.69;;;16.19;50.42
9822;BME280;4950;46.042;14.472;2024-03-23T09:11:52;97374.91;;;16.28;48.85
9822;BME280;4950;46.042;14.472;2024-03-23T09:14:17;97376.44;;;16.47;49.29
9822;BME280;4950;46.042;14.472;2024-03-23T09:16:45;97361.34;;;16.73;49.26
9822;BME280;4950;46.042;14.472;2024-03-23T09:19:11;97366.06;;;16.94;47.91
9822;BME280;4950;46.042;14.472;2024-03-23T09:21:38;97358.66;;;17.03;49.18
9822;BME280;4950;46.042;14.472;2024-03-23T09:24:04;97352.03;;;17.12;49.03
9822;BME280;4950;46.042;14.472;2024-03-23T09:26:31;97349.38;;;17.24;48.73
9822;BME280;4950;46.042;14.472;2024-03-23T09:28:57;97343.56;;;17.34;48.43
9822;BME280;4950;46.042;14.472;2024-03-23T09:31:24;97337.41;;;17.40;47.87
9822;BME280;4950;46.042;14.472;2024-03-23T09:33:51;97344.81;;;17.31;46.95
9822;BME280;4950;46.042;14.472;2024-03-23T09:36:18;97334.56;;;17.30;46.82
9822;BME280;4950;46.042;14.472;2024-03-23T09:38:43;97329.53;;;17.16;46.63
9822;BME280;4950;46.042;14.472;2024-03-23T09:41:10;97325.00;;;17.12;46.67
9822;BME280;4950;46.042;14.472;2024-03-23T09:43:37;97331.16;;;17.17;46.79
9822;BME280;4950;46.042;14.472;2024-03-23T09:46:04;97310.59;;;17.26;46.51
9822;BME280;4950;46.042;14.472;2024-03-23T09:48:31;97296.59;;;17.32;46.22
9822;BME280;4950;46.042;14.472;2024-03-23T09:50:59;97296.00;;;17.42;46.07
9822;BME280;4950;46.042;14.472;2024-03-23T09:53:24;97293.00;;;17.50;45.80
9822;BME280;4950;46.042;14.472;2024-03-23T09:55:51;97281.56;;;17.56;44.85
9822;BME280;4950;46.042;14.472;2024-03-23T09:58:18;97285.75;;;17.69;44.87
9822;BME280;4950;46.042;14.472;2024-03-23T10:00:45;97280.00;;;17.72;44.82
9822;BME280;4950;46.042;14.472;2024-03-23T10:03:10;97275.47;;;17.68;44.52
9822;BME280;4950;46.042;14.472;2024-03-23T10:05:37;97261.22;;;17.64;44.51
9822;BME280;4950;46.042;14.472;2024-03-23T10:08:17;97268.63;;;17.67;44.68
9822;BME280;4950;46.042;14.472;2024-03-23T10:10:45;97259.56;;;17.74;44.47
9822;BME280;4950;46.042;14.472;2024-03-23T10:13:23;97261.50;;;17.79;43.92
9822;BME280;4950;46.042;14.472;2024-03-23T10:15:55;97275.31;;;17.74;44.01
9822;BME280;4950;46.042;14.472;2024-03-23T10:18:22;97268.00;;;17.76;43.69
9822;BME280;4950;46.042;14.472;2024-03-23T10:20:51;97258.38;;;17.82;43.62
9822;BME280;4950;46.042;14.472;2024-03-23T10:23:19;97237.22;;;18.01;43.88
9822;BME280;4950;46.042;14.472;2024-03-23T10:25:46;97241.81;;;18.27;43.29
9822;BME280;4950;46.042;14.472;2024-03-23T10:28:11;97239.88;;;18.57;42.24
9822;BME280;4950;46.042;14.472;2024-03-23T10:30:38;97235.94;;;18.93;41.90
9822;BME280;4950;46.042;14.472;2024-03-23T10:33:07;97232.41;;;19.04;41.46
9822;BME280;4950;46.042;14.472;2024-03-23T10:35:36;97223.66;;;19.21;40.60
9822;BME280;4950;46.042;14.472;2024-03-23T10:38:04;97219.66;;;19.40;40.77
9822;BME280;4950;46.042;14.472;2024-03-23T10:40:33;97218.59;;;19.68;39.72
9822;BME280;4950;46.042;14.472;2024-03-23T10:43:00;97222.53;;;19.93;39.79
9822;BME280;4950;46.042;14.472;2024-03-23T10:45:27;97223.72;;;20.07;38.79
9822;BME280;4950;46.042;14.472;2024-03-23T10:47:53;97203.81;;;20.27;38.91
9822;BME280;4950;46.042;14.472;2024-03-23T10:50:19;97195.72;;;20.34;37.29
9822;BME280;4950;46.042;14.472;2024-03-23T10:52:47;97196.78;;;20.38;37.46
9822;BME280;4950;46.042;14.472;2024-03-23T10:55:16;97195.84;;;20.17;37.82
9822;BME280;4950;46.042;14.472;2024-03-23T10:57:45;97189.47;;;20.45;38.12
9822;BME280;4950;46.042;14.472;2024-03-23T11:00:15;97181.59;;;20.55;37.56
9822;BME280;4950;46.042;14.472;2024-03-23T11:02:41;97183.13;;;20.46;38.57
9822;BME280;4950;46.042;14.472;2024-03-23T11:05:30;97177.09;;;20.56;38.56
9822;BME280;4950;46.042;14.472;2024-03-23T11:07:56;97175.25;;;20.51;38.74
9822;BME280;4950;46.042;14.472;2024-03-23T11:10:27;97164.81;;;20.66;37.72
9822;BME280;4950;46.042;14.472;2024-03-23T11:12:56;97163.00;;;20.72;37.86
9822;BME280;4950;46.042;14.472;2024-03-23T11:15:23;97163.31;;;20.86;37.75
9822;BME280;4950;46.042;14.472;2024-03-23T11:18:13;97157.56;;;20.51;37.88
9822;BME280;4950;46.042;14.472;2024-03-23T11:20:46;97159.78;;;20.65;38.99
9822;BME280;4950;46.042;14.472;2024-03-23T11:23:26;97148.25;;;20.34;37.54
9822;BME280;4950;46.042;14.472;2024-03-23T11:25:53;97151.69;;;20.34;37.18
9822;BME280;4950;46.042;14.472;2024-03-23T11:28:20;97142.47;;;20.37;38.25
9822;BME280;4950;46.042;14.472;2024-03-23T11:30:47;97150.06;;;20.28;38.39
9822;BME280;4950;46.042;14.472;2024-03-23T11:33:15;97142.25;;;20.01;38.65
9822;BME280;4950;46.042;14.472;2024-03-23T11:35:42;97137.75;;;20.01;39.09
9822;BME280;4950;46.042;14.472;2024-03-23T11:38:09;97130.03;;;19.84;38.69
9822;BME280;4950;46.042;14.472;2024-03-23T11:40:37;97134.66;;;19.72;38.97
9822;BME280;4950;46.042;14.472;2024-03-23T11:43:04;97132.38;;;19.53;38.26
9822;BME280;4950;46.042;14.472;2024-03-23T11:45:37;97117.88;;;19.51;38.88
9822;BME280;4950;46.042;14.472;2024-03-23T11:48:05;97110.63;;;19.68;38.92
9822;BME280;4950;46.042;14.472;2024-03-23T11:50:32;97112.91;;;19.87;39.14
9822;BME280;4950;46.042;14.472;2024-03-23T11:53:20;97100.91;;;20.06;38.01
9822;BME280;4950;46.042;14.472;2024-03-23T11:55:48;97100.78;;;20.28;37.93
9822;BME280;4950;46.042;14.472;2024-03-23T11:58:16;97090.84;;;20.46;36.74
9822;BME280;4950;46.042;14.472;2024-03-23T12:00:49;97081.59;;;20.43;36.84
9822;BME280;4950;46.042;14.472;2024-03-23T12:03:17;97070.81;;;20.50;37.06
9822;BME280;4950;46.042;14.472;2024-03-23T12:05:48;97073.53;;;20.65;37.24
9822;BME280;4950;46.042;14.472;2024-03-23T12:08:15;97072.22;;;20.63;37.22
9822;BME280;4950;46.042;14.472;2024-03-23T12:10:44;97051.69;;;20.85;37.29
9822;BME280;4950;46.042;14.472;2024-03-23T12:13:10;97047.50;;;21.10;36.46
9822;BME280;4950;46.042;14.472;2024-03-23T12:15:37;97050.41;;;21.19;37.21
9822;BME280;4950;46.042;14.472;2024-03-23T12:18:07;97031.41;;;21.06;36.27
9822;BME280;4950;46.042;14.472;2024-03-23T12:20:34;97029.22;;;20.67;36.81
9822;BME280;4950;46.042;14.472;2024-03-23T12:23:07;97029.47;;;20.66;38.00
9822;BME280;4950;46.042;14.472;2024-03-23T12:25:35;97030.28;;;20.66;37.24
9822;BME280;4950;46.042;14.472;2024-03-23T12:28:01;97025.19;;;20.49;37.54
9822;BME280;4950;46.042;14.472;2024-03-23T12:30:28;97010.38;;;20.33;37.27
9822;BME280;4950;46.042;14.472;2024-03-23T12:32:54;97014.41;;;19.93;37.70
9822;BME280;4950;46.042;14.472;2024-03-23T12:35:22;97006.22;;;19.89;38.54
9822;BME280;4950;46.042;14.472;2024-03-23T12:37:48;97005.56;;;19.67;38.91
9822;BME280;4950;46.042;14.472;2024-03-23T12:40:14;97010.19;;;19.49;39.68
9822;BME280;4950;46.042;14.472;2024-03-23T12:42:40;97014.25;;;19.30;40.58
9822;BME280;4950;46.042;14.472;2024-03-23T12:45:07;97019.16;;;19.16;40.97
9822;BME280;4950;46.042;14.472;2024-03-23T12:47:33;97010.59;;;19.04;41.53
9822;BME280;4950;46.042;14.472;2024-03-23T12:50:00;97008.97;;;18.98;42.19
9822;BME280;4950;46.042;14.472;2024-03-23T12:52:27;97001.00;;;18.87;43.72
9822;BME280;4950;46.042;14.472;2024-03-23T12:54:55;97000.59;;;18.79;45.50
9822;BME280;4950;46.042;14.472;2024-03-23T12:57:22;97014.31;;;18.53;47.48
9822;BME280;4950;46.042;14.472;2024-03-23T12:59:49;96999.91;;;18.34;49.06
9822;BME280;4950;46.042;14.472;2024-03-23T13:02:17;97011.66;;;18.26;50.02
9822;BME280;4950;46.042;14.472;2024-03-23T13:04:45;97003.22;;;18.24;50.65
9822;BME280;4950;46.042;14.472;2024-03-23T13:07:11;96985.00;;;18.18;51.46
9822;BME280;4950;46.042;14.472;2024-03-23T13:09:39;96994.59;;;18.07;51.73
9822;BME280;4950;46.042;14.472;2024-03-23T13:12:05;96991.81;;;17.96;52.19
9822;BME280;4950;46.042;14.472;2024-03-23T13:14:33;96996.84;;;17.98;52.63
9822;BME280;4950;46.042;14.472;2024-03-23T13:16:59;96998.69;;;17.81;53.01
9822;BME280;4950;46.042;14.472;2024-03-23T13:19:25;96993.94;;;17.77;53.42
9822;BME280;4950;46.042;14.472;2024-03-23T13:21:53;96997.75;;;17.70;53.38
9822;BME280;4950;46.042;14.472;2024-03-23T13:24:22;97007.72;;;17.68;54.29
9822;BME280;4950;46.042;14.472;2024-03-23T13:26:49;96992.75;;;17.68;54.40
9822;BME280;4950;46.042;14.472;2024-03-23T13:29:17;96992.75;;;17.68;54.75
9822;BME280;4950;46.042;14.472;2024-03-23T13:31:42;96992.94;;;17.62;55.45
9822;BME280;4950;46.042;14.472;2024-03-23T13:34:09;96985.94;;;17.50;55.62
9822;BME280;4950;46.042;14.472;2024-03-23T13:36:35;96989.44;;;17.39;56.17
9822;BME280;4950;46.042;14.472;2024-03-23T13:39:02;96994.38;;;17.35;56.92
9822;BME280;4950;46.042;14.472;2024-03-23T13:41:31;96980.00;;;17.38;56.90
9822;BME280;4950;46.042;14.472;2024-03-23T13:43:59;96974.97;;;17.36;56.83
9822;BME280;4950;46.042;14.472;2024-03-23T13:46:25;96980.22;;;17.36;56.49
9822;BME280;4950;46.042;14.472;2024-03-23T13:48:52;96969.50;;;17.21;56.80
9822;BME280;4950;46.042;14.472;2024-03-23T13:51:23;96972.81;;;17.16;57.22
9822;BME280;4950;46.042;14.472;2024-03-23T13:53:50;96965.59;;;17.24;57.91
9822;BME280;4950;46.042;14.472;2024-03-23T13:56:16;96965.28;;;17.20;57.26
9822;BME280;4950;46.042;14.472;2024-03-23T13:58:43;96958.59;;;17.12;57.40
9822;BME280;4950;46.042;14.472;2024-03-23T14:01:13;96954.78;;;17.20;57.53
9822;BME280;4950;46.042;14.472;2024-03-23T14:03:40;96948.84;;;17.25;57.62